createdAt,value
2022-10-24T00:08:25.134Z,10.59
2022-10-24T00:19:32.032Z,10.61
2022-10-24T00:30:06.329Z,10.64
2022-10-24T00:41:04.750Z,10.60
2022-10-24T01:02:29.270Z,10.59
2022-10-24T01:13:42.520Z,10.59
2022-10-24T01:24:40.546Z,10.65
2022-10-24T01:34:54.604Z,10.75
2022-10-24T01:46:23.445Z,10.73
2022-10-24T01:57:43.607Z,10.69
2022-10-24T02:19:25.928Z,10.61
2022-10-24T02:30:28.888Z,10.52
2022-10-24T02:41:20.195Z,10.47
2022-10-24T03:02:42.563Z,10.45
2022-10-24T03:13:23.393Z,10.37
2022-10-24T03:24:11.904Z,10.34
2022-10-24T03:35:14.167Z,10.27
2022-10-24T04:18:05.656Z,10.30
2022-10-24T04:28:48.825Z,10.36
2022-10-24T04:39:48.177Z,10.35
2022-10-24T04:50:45.358Z,10.37
2022-10-24T05:24:43.906Z,10.45
2022-10-24T05:59:22.659Z,10.80
2022-10-24T06:44:56.908Z,11.05
2022-10-24T07:07:58.898Z,11.20
2022-10-24T07:30:27.731Z,11.35
2022-10-24T07:53:51.567Z,11.44
2022-10-24T08:06:10.351Z,11.68
2022-10-24T08:29:55.770Z,12.04
2022-10-24T11:01:32.239Z,15.61
2022-10-24T12:01:29.885Z,16.40
2022-10-24T12:13:10.282Z,16.81
2022-10-24T12:24:04.322Z,17.07
2022-10-24T12:35:57.845Z,17.20
2022-10-24T13:10:12.786Z,17.12
2022-10-24T13:21:28.266Z,17.24
2022-10-24T13:32:45.623Z,17.35
2022-10-24T13:44:01.684Z,17.33
2022-10-24T13:54:43.921Z,17.22
2022-10-24T14:06:37.765Z,17.28
2022-10-24T14:53:21.385Z,16.77
2022-10-24T15:15:44.243Z,16.10
2022-10-24T15:27:08.855Z,15.77
2022-10-24T16:02:09.958Z,14.73
2022-10-24T16:12:55.677Z,14.48
2022-10-24T16:24:29.351Z,14.27
2022-10-24T16:35:01.451Z,14.14
2022-10-24T16:46:02.617Z,13.95
2022-10-24T17:08:44.083Z,13.57
2022-10-24T18:28:46.084Z,12.78
2022-10-24T19:01:55.673Z,12.68
2022-10-24T19:12:06.177Z,12.67
2022-10-24T19:22:38.965Z,12.67
2022-10-24T19:33:04.109Z,12.62
2022-10-24T19:43:35.885Z,12.60
2022-10-24T19:53:52.113Z,12.58
2022-10-24T20:03:57.553Z,12.59
2022-10-24T20:14:05.023Z,12.66
2022-10-24T20:24:12.685Z,12.74
2022-10-24T20:34:23.086Z,12.82
2022-10-24T20:44:31.289Z,12.94
2022-10-24T20:56:14.106Z,13.07
2022-10-24T21:06:04.646Z,13.23
2022-10-24T21:16:28.604Z,13.36
2022-10-24T21:26:35.310Z,13.51
2022-10-24T21:36:38.615Z,13.89
2022-10-24T21:46:56.570Z,14.28
2022-10-24T21:57:08.026Z,14.55
2022-10-24T22:07:23.223Z,14.73
2022-10-24T22:17:39.272Z,14.88
2022-10-24T22:27:49.526Z,14.97
2022-10-24T22:38:12.101Z,15.01
2022-10-24T22:48:36.692Z,15.06
2022-10-24T22:58:47.666Z,15.08
2022-10-24T23:08:58.680Z,15.09
2022-10-24T23:19:32.907Z,15.09
2022-10-24T23:29:57.437Z,15.10
2022-10-24T23:40:32.588Z,15.04
2022-10-24T23:51:34.729Z,14.98
